createdAt,value
2018-04-16T00:02:12.874Z,14.52
2018-04-16T00:04:47.413Z,14.38
2018-04-16T00:07:20.938Z,14.35
2018-04-16T00:09:54.704Z,14.45
2018-04-16T00:12:28.413Z,14.62
2018-04-16T00:15:02.132Z,14.65
2018-04-16T00:17:36.110Z,14.48
2018-04-16T00:20:09.747Z,14.48
2018-04-16T00:32:34.193Z,14.36
2018-04-16T00:38:16.193Z,14.15
2018-04-16T00:40:55.440Z,14.03
2018-04-16T00:43:34.636Z,14.03
2018-04-16T00:46:13.970Z,14.07
2018-04-16T00:48:53.218Z,14.14
2018-04-16T00:51:32.307Z,14.01
2018-04-16T00:54:23.663Z,13.99
2018-04-16T00:57:02.826Z,14.11
2018-04-16T00:59:42.026Z,14.06
2018-04-16T01:02:21.200Z,13.99
2018-04-16T01:05:00.287Z,13.85
2018-04-16T01:07:39.496Z,14.03
2018-04-16T01:10:18.616Z,13.99
2018-04-16T01:12:57.836Z,13.97
2018-04-16T01:15:37.214Z,13.83
2018-04-16T01:18:16.391Z,13.73
2018-04-16T01:20:55.471Z,13.71
2018-04-16T01:23:34.575Z,13.61
2018-04-16T01:26:13.638Z,13.57
2018-04-16T01:28:52.799Z,13.64
2018-04-16T01:31:32.019Z,13.69
2018-04-16T01:34:11.326Z,13.74
2018-04-16T01:46:35.585Z,13.68
2018-04-16T01:49:14.837Z,13.57
2018-04-16T01:51:54.128Z,13.69
2018-04-16T01:54:33.390Z,13.61
2018-04-16T01:57:12.714Z,13.65
2018-04-16T01:59:52.034Z,13.62
2018-04-16T02:02:31.326Z,13.66
2018-04-16T02:05:10.904Z,13.67
2018-04-16T02:07:50.203Z,13.70
2018-04-16T02:10:29.463Z,13.66
2018-04-16T02:13:08.561Z,13.62
2018-04-16T02:15:47.923Z,13.53
2018-04-16T02:31:29.112Z,13.50
2018-04-16T02:34:09.510Z,13.52
2018-04-16T02:36:48.618Z,13.52
2018-04-16T02:39:27.896Z,13.53
2018-04-16T02:42:07.237Z,13.42
2018-04-16T02:44:46.607Z,13.38
2018-04-16T02:47:25.762Z,13.28
2018-04-16T02:50:04.926Z,13.27
2018-04-16T02:52:43.965Z,13.32
2018-04-16T02:55:23.088Z,13.36
2018-04-16T02:58:02.550Z,13.36
2018-04-16T03:00:41.785Z,13.31
2018-04-16T03:03:21.241Z,13.24
2018-04-16T03:06:00.954Z,13.16
2018-04-16T03:08:40.239Z,13.30
2018-04-16T03:11:19.376Z,13.37
2018-04-16T03:13:58.468Z,13.40
2018-04-16T03:16:37.729Z,13.23
2018-04-16T03:19:16.907Z,13.26
2018-04-16T03:21:56.144Z,13.34
2018-04-16T03:24:35.466Z,13.43
2018-04-16T03:27:14.677Z,13.36
2018-04-16T03:29:54.719Z,13.47
2018-04-16T03:32:33.788Z,13.52
2018-04-16T03:35:13.280Z,13.29
2018-04-16T03:37:52.457Z,13.34
2018-04-16T03:40:31.687Z,13.46
2018-04-16T03:43:11.326Z,13.41
2018-04-16T03:45:50.635Z,13.23
2018-04-16T03:48:29.829Z,13.25
2018-04-16T03:51:14.299Z,13.22
2018-04-16T03:53:48.385Z,13.14
2018-04-16T03:56:22.142Z,13.19
2018-04-16T03:58:55.667Z,13.22
2018-04-16T04:01:29.267Z,13.21
2018-04-16T04:04:02.827Z,13.19
2018-04-16T04:06:36.403Z,13.28
2018-04-16T04:09:10.128Z,13.35
2018-04-16T04:11:44.163Z,13.33
2018-04-16T04:14:17.858Z,13.42
2018-04-16T04:16:51.494Z,13.35
2018-04-16T04:19:25.586Z,13.32
2018-04-16T04:21:59.209Z,13.21
2018-04-16T04:24:44.661Z,13.17
2018-04-16T04:27:30.882Z,13.18
2018-04-16T04:30:16.185Z,13.04
2018-04-16T04:32:49.867Z,13.11
2018-04-16T04:35:23.511Z,12.98
2018-04-16T04:37:57.051Z,13.02
2018-04-16T04:40:30.633Z,13.08
2018-04-16T04:43:04.443Z,13.11
2018-04-16T04:45:39.009Z,13.19
2018-04-16T04:48:12.815Z,13.13
2018-04-16T04:50:46.457Z,13.04
2018-04-16T04:53:19.976Z,12.89
2018-04-16T04:55:53.663Z,12.83
2018-04-16T04:58:27.262Z,13.01
2018-04-16T05:01:00.975Z,13.04
2018-04-16T05:03:35.507Z,12.96
2018-04-16T05:06:09.177Z,12.84
2018-04-16T05:08:43.196Z,12.93
2018-04-16T05:11:16.835Z,13.02
2018-04-16T05:13:50.382Z,13.12
2018-04-16T05:16:24.007Z,13.11
2018-04-16T05:18:57.574Z,13.07
2018-04-16T05:21:31.282Z,12.88
2018-04-16T05:24:04.866Z,12.98
2018-04-16T05:26:38.603Z,13.02
2018-04-16T05:29:12.422Z,13.18
2018-04-16T05:31:46.017Z,13.09
2018-04-16T05:34:19.996Z,13.09
2018-04-16T05:36:53.744Z,13.20
2018-04-16T05:39:27.329Z,13.17
2018-04-16T05:42:01.137Z,12.91
2018-04-16T05:44:35.828Z,12.85
2018-04-16T05:47:09.459Z,12.88
2018-04-16T05:49:43.764Z,12.88
2018-04-16T05:52:17.370Z,12.81
2018-04-16T05:54:51.160Z,12.62
2018-04-16T05:57:24.908Z,12.78
2018-04-16T05:59:58.582Z,13.01
2018-04-16T06:02:33.140Z,13.16
2018-04-16T06:05:06.985Z,13.03
2018-04-16T06:07:40.635Z,12.81
2018-04-16T06:10:14.230Z,12.83
2018-04-16T06:12:48.419Z,12.90
2018-04-16T06:15:21.974Z,12.86
2018-04-16T06:17:55.531Z,12.77
2018-04-16T06:20:29.199Z,12.78
2018-04-16T06:23:02.763Z,12.87
2018-04-16T06:25:36.439Z,12.72
2018-04-16T06:28:09.995Z,12.87
2018-04-16T06:30:43.670Z,12.80
2018-04-16T06:33:17.359Z,12.84
2018-04-16T06:35:50.926Z,12.97
2018-04-16T06:38:24.414Z,12.78
2018-04-16T06:40:58.200Z,13.03
2018-04-16T06:43:31.874Z,13.18
2018-04-16T06:46:05.407Z,13.39
2018-04-16T06:48:39.048Z,13.32
2018-04-16T06:51:12.732Z,13.29
2018-04-16T06:53:46.363Z,13.16
2018-04-16T06:56:19.924Z,13.21
2018-04-16T06:58:53.804Z,13.21
2018-04-16T07:11:12.646Z,14.59
2018-04-16T07:13:46.386Z,14.99
2018-04-16T07:16:20.717Z,15.55
2018-04-16T07:18:54.467Z,16.29
2018-04-16T07:21:28.021Z,17.04
2018-04-16T07:24:01.564Z,17.08
2018-04-16T07:26:35.274Z,17.33
2018-04-16T07:29:09.050Z,20.62
2018-04-16T07:31:42.567Z,23.38
2018-04-16T07:34:16.377Z,25.91
2018-04-16T07:49:50.214Z,33.62
2018-04-16T07:52:23.935Z,31.30
2018-04-16T07:54:57.665Z,32.41
2018-04-16T07:57:31.370Z,30.52
2018-04-16T08:00:04.966Z,26.22
2018-04-16T08:02:39.182Z,24.01
2018-04-16T08:05:13.268Z,23.61
2018-04-16T08:07:46.770Z,23.27
2018-04-16T08:10:20.270Z,23.32
2018-04-16T08:12:53.919Z,20.03
2018-04-16T08:15:27.527Z,24.05
2018-04-16T08:18:01.655Z,26.30
2018-04-16T08:20:35.219Z,26.24
2018-04-16T08:23:09.831Z,25.49
2018-04-16T08:25:43.816Z,28.39
2018-04-16T08:28:17.480Z,23.36
2018-04-16T08:30:51.920Z,18.28
2018-04-16T08:33:25.454Z,16.20
2018-04-16T08:35:59.045Z,15.60
2018-04-16T08:38:32.707Z,15.96
2018-04-16T08:41:06.401Z,16.33
2018-04-16T08:43:39.947Z,16.52
2018-04-16T08:46:13.458Z,16.51
2018-04-16T08:48:46.981Z,16.42
2018-04-16T08:51:20.610Z,16.51
2018-04-16T08:53:54.269Z,16.37
2018-04-16T08:56:27.818Z,16.13
2018-04-16T08:59:01.580Z,16.24
2018-04-16T09:01:35.184Z,16.46
2018-04-16T09:04:08.708Z,16.67
2018-04-16T09:06:42.216Z,16.77
2018-04-16T09:09:15.832Z,16.55
2018-04-16T09:11:49.602Z,16.58
2018-04-16T09:14:23.907Z,16.67
2018-04-16T09:16:57.478Z,16.04
2018-04-16T09:19:31.014Z,16.06
2018-04-16T09:22:04.937Z,15.99
2018-04-16T09:24:39.483Z,16.19
2018-04-16T09:27:13.133Z,16.21
2018-04-16T09:29:46.658Z,16.45
2018-04-16T09:32:20.316Z,16.46
2018-04-16T09:34:53.972Z,16.39
2018-04-16T09:37:27.688Z,16.44
2018-04-16T09:40:01.206Z,16.66
2018-04-16T09:42:35.621Z,16.46
2018-04-16T09:45:10.127Z,16.61
2018-04-16T09:47:43.748Z,16.27
2018-04-16T09:50:18.152Z,16.03
2018-04-16T09:52:51.717Z,15.76
2018-04-16T09:55:25.261Z,15.70
2018-04-16T09:57:59.389Z,15.73
2018-04-16T10:00:38.894Z,15.64
2018-04-16T10:03:18.355Z,15.79
2018-04-16T10:05:51.957Z,15.96
2018-04-16T10:08:25.507Z,15.99
2018-04-16T10:10:59.462Z,16.26
2018-04-16T10:13:33.589Z,16.21
2018-04-16T10:16:07.169Z,16.33
2018-04-16T10:18:40.644Z,16.32
2018-04-16T10:21:14.348Z,15.86
2018-04-16T10:23:47.888Z,15.41
2018-04-16T10:26:21.396Z,15.63
2018-04-16T10:28:55.065Z,15.64
2018-04-16T10:31:28.837Z,15.80
2018-04-16T10:34:03.327Z,15.84
2018-04-16T10:36:36.939Z,15.47
2018-04-16T10:39:10.696Z,15.42
2018-04-16T10:41:44.354Z,15.12
2018-04-16T10:44:18.635Z,15.18
2018-04-16T10:46:53.211Z,15.43
2018-04-16T10:49:26.834Z,15.23
2018-04-16T10:52:00.496Z,15.31
2018-04-16T10:54:34.060Z,15.26
2018-04-16T10:57:08.053Z,15.35
2018-04-16T10:59:41.579Z,15.35
2018-04-16T11:02:15.099Z,15.38
2018-04-16T11:14:33.843Z,16.05
2018-04-16T11:17:07.423Z,15.95
2018-04-16T11:19:41.744Z,15.73
2018-04-16T11:22:15.453Z,15.94
2018-04-16T11:24:49.556Z,16.17
2018-04-16T11:27:23.367Z,16.30
2018-04-16T11:29:57.662Z,16.23
2018-04-16T11:32:31.239Z,16.44
2018-04-16T11:35:04.823Z,16.53
2018-04-16T11:37:38.817Z,16.53
2018-04-16T11:40:12.427Z,16.49
2018-04-16T11:42:46.163Z,16.60
2018-04-16T11:45:20.565Z,16.48
2018-04-16T11:47:54.511Z,16.37
2018-04-16T11:50:29.183Z,16.05
2018-04-16T11:53:02.926Z,16.03
2018-04-16T11:55:36.871Z,16.07
2018-04-16T11:58:10.605Z,16.11
2018-04-16T12:00:44.489Z,16.24
2018-04-16T12:03:18.065Z,16.25
2018-04-16T12:05:51.615Z,16.15
2018-04-16T12:08:25.095Z,16.27
2018-04-16T12:10:59.815Z,16.13
2018-04-16T12:13:33.345Z,16.07
2018-04-16T12:16:06.872Z,16.12
2018-04-16T12:18:40.663Z,16.36
2018-04-16T12:21:14.479Z,16.37
2018-04-16T12:23:47.990Z,16.29
2018-04-16T12:26:22.359Z,16.32
2018-04-16T12:28:55.931Z,16.22
2018-04-16T12:31:29.708Z,16.02
2018-04-16T12:34:03.247Z,15.96
2018-04-16T12:36:37.859Z,15.97
2018-04-16T12:39:11.683Z,16.12
2018-04-16T12:41:45.334Z,16.11
2018-04-16T12:44:19.088Z,16.04
2018-04-16T12:46:52.608Z,16.06
2018-04-16T12:49:26.573Z,16.11
2018-04-16T12:52:00.738Z,16.04
2018-04-16T12:54:34.464Z,16.05
2018-04-16T12:57:08.169Z,16.11
2018-04-16T12:59:42.078Z,16.18
2018-04-16T13:02:15.721Z,16.35
2018-04-16T13:04:49.277Z,16.29
2018-04-16T13:07:22.821Z,16.31
2018-04-16T13:09:57.522Z,16.36
2018-04-16T13:12:31.942Z,16.33
2018-04-16T13:15:06.595Z,16.26
2018-04-16T13:17:40.217Z,16.26
2018-04-16T13:20:13.972Z,16.24
2018-04-16T13:22:47.656Z,16.30
2018-04-16T13:25:21.268Z,16.29
2018-04-16T13:27:54.950Z,16.14
2018-04-16T13:40:14.523Z,16.09
2018-04-16T13:42:48.106Z,16.24
2018-04-16T13:45:21.696Z,16.06
2018-04-16T13:47:55.235Z,16.04
2018-04-16T13:50:28.977Z,15.94
2018-04-16T13:53:02.823Z,15.88
2018-04-16T13:55:36.639Z,15.98
2018-04-16T13:58:10.356Z,16.03
2018-04-16T14:00:44.120Z,15.96
2018-04-16T14:03:17.862Z,16.00
2018-04-16T14:05:51.398Z,16.03
2018-04-16T14:08:25.035Z,16.02
2018-04-16T14:10:58.760Z,16.08
2018-04-16T14:13:32.499Z,16.09
2018-04-16T14:16:06.218Z,16.19
2018-04-16T14:18:39.773Z,16.22
2018-04-16T14:21:13.594Z,16.16
2018-04-16T14:23:48.436Z,16.04
2018-04-16T14:26:21.999Z,16.09
2018-04-16T14:28:56.613Z,16.10
2018-04-16T14:31:30.269Z,16.04
2018-04-16T14:34:03.823Z,16.07
2018-04-16T14:36:37.401Z,16.04
2018-04-16T14:39:10.947Z,16.03
2018-04-16T14:41:44.473Z,15.94
2018-04-16T14:44:18.016Z,15.93
2018-04-16T14:46:51.614Z,15.94
2018-04-16T14:59:10.297Z,16.00
2018-04-16T15:01:45.111Z,16.03
2018-04-16T15:04:18.684Z,15.98
2018-04-16T15:06:52.347Z,16.09
2018-04-16T15:09:25.958Z,16.03
2018-04-16T15:11:59.730Z,15.91
2018-04-16T15:14:33.440Z,15.93
2018-04-16T15:17:07.239Z,15.87
2018-04-16T15:19:40.921Z,15.92
2018-04-16T15:22:14.593Z,15.86
2018-04-16T15:24:48.216Z,15.87
2018-04-16T15:27:21.952Z,15.79
2018-04-16T15:29:55.501Z,15.87
2018-04-16T15:32:29.148Z,15.90
2018-04-16T15:47:57.931Z,15.84
2018-04-16T15:50:31.551Z,15.85
2018-04-16T15:53:05.186Z,15.79
2018-04-16T15:55:39.611Z,15.75
2018-04-16T15:58:13.348Z,15.68
2018-04-16T16:00:47.014Z,15.67
2018-04-16T16:03:20.580Z,15.61
2018-04-16T16:05:54.316Z,15.64
2018-04-16T16:08:28.160Z,15.54
2018-04-16T16:11:02.061Z,15.55
2018-04-16T16:13:35.698Z,15.64
2018-04-16T16:16:09.381Z,15.70
2018-04-16T16:18:42.938Z,15.69
2018-04-16T16:21:16.434Z,15.70
2018-04-16T16:23:50.180Z,15.80
2018-04-16T16:26:24.036Z,15.79
2018-04-16T16:28:57.719Z,15.73
2018-04-16T16:31:31.229Z,15.66
2018-04-16T16:34:04.739Z,15.72
2018-04-16T16:36:38.375Z,15.71
2018-04-16T16:39:12.081Z,15.70
2018-04-16T16:41:45.948Z,15.59
2018-04-16T16:44:19.479Z,15.57
2018-04-16T16:46:54.144Z,15.60
2018-04-16T16:49:27.674Z,15.62
2018-04-16T16:52:01.375Z,15.64
2018-04-16T16:54:34.890Z,15.68
2018-04-16T16:57:08.427Z,15.73
2018-04-16T16:59:42.113Z,15.72
2018-04-16T17:02:15.619Z,15.69
2018-04-16T17:04:49.233Z,15.60
2018-04-16T17:07:22.807Z,15.64
2018-04-16T17:09:56.359Z,15.65
2018-04-16T17:12:30.447Z,15.66
2018-04-16T17:15:04.099Z,15.56
2018-04-16T17:17:37.641Z,15.59
2018-04-16T17:20:11.206Z,15.58
2018-04-16T17:22:44.678Z,15.47
2018-04-16T17:25:18.223Z,15.29
2018-04-16T17:27:52.188Z,15.21
2018-04-16T17:30:25.942Z,15.22
2018-04-16T17:32:59.667Z,15.23
2018-04-16T17:35:33.241Z,15.24
2018-04-16T17:38:06.916Z,15.28
2018-04-16T17:40:40.609Z,15.35
2018-04-16T17:43:14.179Z,15.39
2018-04-16T17:45:47.725Z,15.31
2018-04-16T17:48:21.281Z,15.33
2018-04-16T17:50:56.354Z,15.31
2018-04-16T17:53:30.103Z,15.26
2018-04-16T17:56:03.939Z,15.23
2018-04-16T17:58:37.887Z,15.20
2018-04-16T18:01:11.499Z,15.21
2018-04-16T18:03:45.473Z,15.11
2018-04-16T18:06:19.095Z,15.06
2018-04-16T18:08:52.544Z,15.08
2018-04-16T18:11:26.069Z,14.99
2018-04-16T18:13:59.751Z,15.02
2018-04-16T18:16:33.550Z,15.05
2018-04-16T18:19:07.376Z,15.00
2018-04-16T18:21:41.046Z,14.94
2018-04-16T18:24:14.573Z,14.75
2018-04-16T18:26:48.103Z,14.77
2018-04-16T18:29:22.673Z,14.74
2018-04-16T18:31:57.422Z,14.59
2018-04-16T18:34:31.678Z,14.60
2018-04-16T18:37:05.200Z,14.54
2018-04-16T18:39:39.119Z,14.49
2018-04-16T18:42:12.800Z,14.48
2018-04-16T18:44:46.292Z,14.36
2018-04-16T18:47:20.651Z,14.37
2018-04-16T18:49:54.200Z,14.49
2018-04-16T18:52:27.796Z,14.51
2018-04-16T18:55:01.765Z,14.52
2018-04-16T18:57:35.461Z,14.46
2018-04-16T19:00:09.151Z,14.26
2018-04-16T19:02:43.316Z,14.31
2018-04-16T19:05:17.632Z,14.25
2018-04-16T19:07:52.456Z,14.23
2018-04-16T19:10:26.133Z,14.15
2018-04-16T19:13:00.861Z,14.17
2018-04-16T19:15:35.160Z,14.16
2018-04-16T19:18:09.735Z,14.32
2018-04-16T19:23:52.145Z,14.32
2018-04-16T19:26:25.941Z,14.30
2018-04-16T19:28:59.922Z,14.36
2018-04-16T19:31:33.526Z,14.32
2018-04-16T19:34:12.652Z,14.24
2018-04-16T19:36:46.360Z,14.41
2018-04-16T19:39:20.832Z,14.46
2018-04-16T19:42:00.226Z,14.27
2018-04-16T19:44:33.824Z,14.39
2018-04-16T19:47:07.808Z,14.45
2018-04-16T19:52:42.182Z,14.39
2018-04-16T19:55:15.883Z,14.49
2018-04-16T19:57:55.392Z,14.49
2018-04-16T20:00:29.087Z,14.40
2018-04-16T20:03:08.190Z,14.32
2018-04-16T20:05:41.920Z,14.06
2018-04-16T20:08:16.286Z,14.14
2018-04-16T20:10:50.065Z,14.05
2018-04-16T20:13:23.764Z,14.06
2018-04-16T20:15:57.416Z,14.10
2018-04-16T20:18:31.035Z,13.94
2018-04-16T20:21:04.657Z,13.92
2018-04-16T20:23:38.232Z,13.92
2018-04-16T20:26:12.018Z,13.88
2018-04-16T20:28:45.575Z,14.03
2018-04-16T20:31:19.300Z,14.11
2018-04-16T20:33:52.979Z,13.85
2018-04-16T20:36:26.699Z,14.02
2018-04-16T20:39:00.630Z,14.02
2018-04-16T20:41:34.289Z,13.90
2018-04-16T20:44:08.014Z,13.92
2018-04-16T20:46:41.798Z,13.81
2018-04-16T20:49:15.395Z,13.92
2018-04-16T20:51:48.932Z,13.96
2018-04-16T20:54:22.530Z,13.89
2018-04-16T20:56:56.107Z,13.84
2018-04-16T20:59:29.710Z,13.82
2018-04-16T21:02:03.387Z,13.51
2018-04-16T21:04:37.086Z,13.56
2018-04-16T21:07:11.380Z,13.58
2018-04-16T21:09:44.970Z,13.53
2018-04-16T21:12:18.548Z,13.30
2018-04-16T21:14:52.151Z,13.27
2018-04-16T21:17:25.816Z,13.41
2018-04-16T21:19:59.485Z,13.23
2018-04-16T21:22:33.039Z,13.32
2018-04-16T21:25:06.853Z,13.41
2018-04-16T21:27:40.604Z,13.39
2018-04-16T21:30:14.122Z,13.42
2018-04-16T21:32:47.600Z,13.34
2018-04-16T21:35:21.254Z,13.24
2018-04-16T21:37:55.004Z,13.30
2018-04-16T21:40:28.548Z,13.22
2018-04-16T21:43:02.139Z,13.14
2018-04-16T21:45:35.728Z,13.08
2018-04-16T21:48:09.231Z,13.13
2018-04-16T21:50:42.973Z,13.15
2018-04-16T21:53:16.723Z,12.93
2018-04-16T21:55:50.375Z,13.04
2018-04-16T21:58:24.147Z,13.03
2018-04-16T22:00:58.268Z,12.97
2018-04-16T22:03:31.847Z,13.04
2018-04-16T22:06:05.657Z,13.13
2018-04-16T22:08:39.456Z,13.06
2018-04-16T22:11:13.095Z,13.00
2018-04-16T22:13:46.686Z,13.14
2018-04-16T22:16:20.272Z,13.17
2018-04-16T22:18:54.060Z,13.08
2018-04-16T22:21:28.645Z,13.09
2018-04-16T22:24:02.175Z,12.91
2018-04-16T22:26:35.753Z,12.89
2018-04-16T22:29:09.372Z,12.87
2018-04-16T22:31:42.924Z,12.87
2018-04-16T22:34:16.494Z,12.72
2018-04-16T22:36:50.371Z,12.73
2018-04-16T22:39:23.899Z,12.70
2018-04-16T22:41:57.568Z,12.83
2018-04-16T22:44:31.731Z,12.84
2018-04-16T22:47:05.371Z,12.97
2018-04-16T22:49:39.100Z,12.91
2018-04-16T22:52:13.312Z,12.86
2018-04-16T22:54:46.994Z,12.77
2018-04-16T22:57:20.547Z,12.77
2018-04-16T22:59:54.027Z,12.79
2018-04-16T23:02:28.063Z,12.77
2018-04-16T23:05:01.667Z,12.80
2018-04-16T23:07:35.475Z,12.77
2018-04-16T23:10:09.031Z,12.82
2018-04-16T23:12:42.653Z,12.87
2018-04-16T23:15:16.276Z,12.86
2018-04-16T23:17:49.914Z,12.84
2018-04-16T23:20:23.587Z,12.78
2018-04-16T23:22:57.402Z,12.77
2018-04-16T23:25:31.019Z,12.77
2018-04-16T23:28:04.858Z,12.77
2018-04-16T23:30:38.606Z,12.71
2018-04-16T23:33:12.956Z,12.67
2018-04-16T23:35:46.457Z,12.67
2018-04-16T23:38:20.212Z,12.61
2018-04-16T23:40:53.894Z,12.54
2018-04-16T23:43:27.366Z,12.58
2018-04-16T23:46:00.967Z,12.65
2018-04-16T23:48:34.595Z,12.63
2018-04-16T23:51:08.355Z,12.60
2018-04-16T23:53:41.908Z,12.59
2018-04-16T23:56:15.843Z,12.51
2018-04-16T23:58:50.313Z,12.59
